Time;durP1;ratioP1;P1;durP2;ratioP2;P2;SDS_P1;SDS_P2;PMS_P1;PMS_P2;Temp;Humidity;BMP_temperature;BMP_pressure;BME280_temperature;BME280_humidity;BME280_pressure;Samples;Min_cycle;Max_cycle;Signal;HPM_P1;HPM_P2
2022/03/12 00:00:38;;;;;;;16.63;8.68;;;;;;;-1.97;40.25;101989.25;5048638;28;20079;-70
2022/03/12 00:03:04;;;;;;;17.27;7.13;;;;;;;-2.01;40.47;101979.63;5045250;28;20033;-70
2022/03/12 00:05:30;;;;;;;22.15;8.48;;;;;;;-1.98;40.32;101979.59;5059909;28;20562;-70
2022/03/12 00:07:55;;;;;;;14.90;7.22;;;;;;;-1.97;40.63;101978.75;5038380;28;20052;-70
2022/03/12 00:10:22;;;;;;;20.42;7.78;;;;;;;-1.96;40.07;101985.72;5036880;28;20143;-70
2022/03/12 00:12:48;;;;;;;17.33;7.03;;;;;;;-1.98;40.73;101979.59;5050042;28;20032;-70
2022/03/12 00:15:14;;;;;;;14.60;6.72;;;;;;;-1.98;40.75;101976.97;5045571;28;20473;-70
2022/03/12 00:17:45;;;;;;;16.15;8.18;;;;;;;-1.95;40.35;101984.84;5046613;28;20098;-70
2022/03/12 00:20:13;;;;;;;20.15;8.40;;;;;;;-1.95;40.83;101987.47;5046895;28;22139;-70
2022/03/12 00:22:45;;;;;;;16.92;7.03;;;;;;;-1.95;40.40;101988.34;5041543;28;20179;-70
2022/03/12 00:25:13;;;;;;;13.82;7.53;;;;;;;-2.02;41.05;101978.78;5046036;28;20811;-70
2022/03/12 00:27:40;;;;;;;16.42;7.22;;;;;;;-2.01;40.73;101980.50;5045650;28;20032;-70
2022/03/12 00:30:07;;;;;;;14.63;7.28;;;;;;;-1.98;40.62;101988.38;5029433;28;20017;-70
2022/03/12 00:32:37;;;;;;;15.77;8.23;;;;;;;-1.98;40.72;101977.84;5043553;28;20115;-70
2022/03/12 00:35:08;;;;;;;15.07;7.05;;;;;;;-2.01;40.81;101983.16;5039267;28;20022;-70
2022/03/12 00:37:34;;;;;;;14.85;6.82;;;;;;;-2.00;41.01;101979.63;5038599;28;20060;-70
2022/03/12 00:39:59;;;;;;;21.90;8.38;;;;;;;-2.01;40.54;101977.88;5033595;28;20087;-70
2022/03/12 00:42:25;;;;;;;18.77;7.85;;;;;;;-2.00;40.97;101984.03;5047292;28;20017;-70
2022/03/12 00:44:50;;;;;;;16.30;7.22;;;;;;;-2.02;41.13;101984.03;5048408;28;20078;-70
2022/03/12 00:47:16;;;;;;;14.02;7.53;;;;;;;-2.03;40.88;101978.78;5048132;28;20086;-70
2022/03/12 00:49:42;;;;;;;15.98;7.85;;;;;;;-2.02;40.76;101978.78;5046970;28;20025;-70
2022/03/12 00:52:07;;;;;;;16.38;6.88;;;;;;;-2.07;41.16;101970.06;5047392;28;20079;-70
2022/03/12 00:54:33;;;;;;;16.17;7.85;;;;;;;-2.12;41.48;101964.00;5049453;28;20091;-70
2022/03/12 00:56:58;;;;;;;16.50;7.43;;;;;;;-2.04;41.69;101971.81;5046074;28;20029;-70
2022/03/12 00:59:24;;;;;;;14.75;6.93;;;;;;;-2.10;41.49;101967.47;5046423;28;20572;-70
2022/03/12 01:01:50;;;;;;;18.70;7.03;;;;;;;-2.08;41.88;101968.31;5048019;28;20035;-70
2022/03/12 01:04:16;;;;;;;14.00;6.50;;;;;;;-2.11;41.49;101957.84;5045490;28;20384;-70
2022/03/12 01:06:42;;;;;;;13.45;6.28;;;;;;;-2.04;41.53;101967.41;5046543;28;20747;-70
2022/03/12 01:09:10;;;;;;;16.65;7.00;;;;;;;-2.04;41.90;101971.81;5037481;28;20362;-70
2022/03/12 01:11:38;;;;;;;14.25;7.45;;;;;;;-2.08;41.42;101956.94;5044658;28;20103;-68
2022/03/12 01:14:04;;;;;;;19.92;7.35;;;;;;;-2.02;41.84;101962.13;5046040;28;20040;-68
2022/03/12 01:16:30;;;;;;;17.58;7.47;;;;;;;-2.11;41.68;101942.06;5039953;28;20033;-69
2022/03/12 01:18:55;;;;;;;13.32;6.97;;;;;;;-2.13;41.43;101949.09;5040504;28;20033;-68
2022/03/12 01:21:22;;;;;;;11.38;6.82;;;;;;;-2.11;42.07;101951.72;5049407;28;20041;-68
2022/03/12 01:23:49;;;;;;;17.73;7.50;;;;;;;-2.08;41.43;101956.94;5046884;28;20033;-68
2022/03/12 01:26:17;;;;;;;16.23;6.90;;;;;;;-2.15;41.59;101947.38;5046622;28;20043;-68
2022/03/12 01:28:42;;;;;;;15.75;6.53;;;;;;;-2.08;41.64;101955.19;5043783;28;20114;-68
2022/03/12 01:31:08;;;;;;;16.27;7.80;;;;;;;-2.20;41.69;101926.41;5047264;28;20036;-69
2022/03/12 01:33:33;;;;;;;13.77;6.80;;;;;;;-2.09;42.27;101955.19;5042129;28;20025;-68
2022/03/12 01:35:59;;;;;;;17.40;6.55;;;;;;;-2.11;41.73;101946.44;5048344;28;20031;-68
2022/03/12 01:38:34;;;;;;;13.35;6.75;;;;;;;-2.14;41.38;101960.50;5045558;28;20035;-69
2022/03/12 01:41:03;;;;;;;15.38;6.53;;;;;;;-2.12;41.45;101965.75;5029524;28;20072;-69
2022/03/12 01:43:36;;;;;;;14.40;6.53;;;;;;;-2.12;41.74;101974.50;5047754;28;20378;-68
2022/03/12 01:46:02;;;;;;;11.00;6.43;;;;;;;-2.18;41.92;101968.44;5045237;28;20116;-68
2022/03/12 01:48:30;;;;;;;17.35;7.32;;;;;;;-2.16;41.58;101978.03;5046800;28;20489;-69
2022/03/12 01:50:56;;;;;;;11.90;6.75;;;;;;;-2.16;41.70;101983.28;5043668;28;20021;-68
2022/03/12 01:53:25;;;;;;;15.82;6.63;;;;;;;-2.18;42.34;101984.19;5058433;28;20524;-68
2022/03/12 01:55:51;;;;;;;13.73;7.30;;;;;;;-2.29;42.52;101971.16;5050203;28;20067;-68
2022/03/12 01:58:16;;;;;;;17.02;7.65;;;;;;;-2.25;41.97;101985.13;5045827;28;20480;-69
2022/03/12 02:00:48;;;;;;;14.65;5.97;;;;;;;-2.28;42.22;102000.94;5049214;28;20028;-69
2022/03/12 02:03:16;;;;;;;15.10;6.97;;;;;;;-2.38;42.11;101998.38;5050174;28;20028;-68
2022/03/12 02:05:42;;;;;;;14.55;6.60;;;;;;;-2.42;42.55;102004.53;5046558;28;20472;-69
2022/03/12 02:08:13;;;;;;;12.48;6.68;;;;;;;-2.46;42.56;102004.59;5046499;28;20037;-68
2022/03/12 02:10:40;;;;;;;14.05;7.47;;;;;;;-2.54;42.53;102003.78;5049101;28;20029;-69
2022/03/12 02:13:05;;;;;;;11.50;6.30;;;;;;;-2.61;42.37;101997.69;5047062;28;20033;-68
2022/03/12 02:15:31;;;;;;;15.13;6.28;;;;;;;-2.65;42.55;101998.59;5044479;28;20151;-68
2022/03/12 02:17:56;;;;;;;17.20;7.03;;;;;;;-2.72;43.05;101996.03;5043216;28;20100;-69
2022/03/12 02:20:22;;;;;;;15.70;6.68;;;;;;;-2.72;43.01;102006.53;5046425;28;20029;-68
2022/03/12 02:22:53;;;;;;;16.33;7.10;;;;;;;-2.78;42.89;102010.06;5045576;28;20095;-68
2022/03/12 02:25:25;;;;;;;14.95;7.25;;;;;;;-2.84;43.42;101999.63;5045086;28;20083;-69
2022/03/12 02:27:50;;;;;;;10.80;6.88;;;;;;;-2.91;43.44;102002.28;5045888;28;20136;-69
2022/03/12 02:30:15;;;;;;;14.68;6.38;;;;;;;-3.01;43.55;101997.97;5035571;28;20460;-68
2022/03/12 02:32:44;;;;;;;16.50;8.25;;;;;;;-3.12;43.21;101987.56;5049743;28;20029;-69
2022/03/12 02:35:10;;;;;;;13.65;6.35;;;;;;;-3.10;43.86;101998.91;5044055;28;20029;-68
2022/03/12 02:37:36;;;;;;;14.93;6.82;;;;;;;-3.08;43.80;102010.28;5046226;28;20361;-69
2022/03/12 02:40:09;;;;;;;13.38;6.30;;;;;;;-3.10;44.02;102003.28;5048895;28;20040;-68
2022/03/12 02:42:38;;;;;;;15.50;7.18;;;;;;;-3.13;nan;102009.41;5044284;28;20025;-69
2022/03/12 02:45:08;;;;;;;15.85;7.60;;;;;;;-3.14;44.17;102006.78;5036701;28;20029;-68
2022/03/12 02:47:35;;;;;;;15.25;5.95;;;;;;;-3.15;43.72;102005.94;5039916;28;20119;-69
2022/03/12 02:50:06;;;;;;;16.63;6.60;;;;;;;-3.14;44.18;102012.03;5046805;28;20055;-68
2022/03/12 02:52:32;;;;;;;16.48;6.63;;;;;;;-3.15;44.07;102003.31;5042341;28;20030;-69
2022/03/12 02:55:00;;;;;;;14.73;7.28;;;;;;;-3.17;44.29;102006.81;5039016;28;20033;-68
2022/03/12 02:57:27;;;;;;;17.55;7.75;;;;;;;-3.15;44.59;102011.19;5046782;28;20029;-69
2022/03/12 02:59:55;;;;;;;13.57;7.30;;;;;;;-3.11;44.11;102012.91;5048482;28;20064;-68
2022/03/12 03:02:25;;;;;;;15.50;7.05;;;;;;;-3.10;44.03;102004.16;5045276;28;20499;-69
2022/03/12 03:04:51;;;;;;;14.32;6.43;;;;;;;-3.07;44.51;102016.38;5043690;28;20661;-69
2022/03/12 03:07:17;;;;;;;15.48;7.15;;;;;;;-3.05;44.12;102018.13;5060806;28;20045;-69
2022/03/12 03:09:43;;;;;;;15.15;7.18;;;;;;;-3.02;44.26;102018.13;5041606;28;20029;-70
2022/03/12 03:12:10;;;;;;;18.35;7.53;;;;;;;-3.01;44.55;102008.47;5037279;28;20373;-70
2022/03/12 03:14:43;;;;;;;13.07;6.50;;;;;;;-3.01;44.33;102008.47;5046137;28;20116;-70
2022/03/12 03:17:11;;;;;;;14.57;6.40;;;;;;;-2.97;43.77;102016.31;5046251;28;20425;-69
2022/03/12 03:19:37;;;;;;;15.02;7.60;;;;;;;-2.98;44.50;102017.22;5044238;28;20048;-70
2022/03/12 03:22:03;;;;;;;13.95;7.20;;;;;;;-2.96;44.15;102017.19;5045281;28;20090;-70
2022/03/12 03:24:29;;;;;;;13.50;6.13;;;;;;;-2.93;44.01;102025.06;5043915;28;20448;-69
2022/03/12 03:26:56;;;;;;;19.35;6.15;;;;;;;-2.89;44.01;102030.28;5041454;28;20033;-69
2022/03/12 03:29:24;;;;;;;13.15;6.82;;;;;;;-2.89;43.91;102025.03;5045867;28;20021;-70
2022/03/12 03:31:50;;;;;;;12.70;6.25;;;;;;;-2.88;44.09;102023.25;5045148;28;20113;-69
2022/03/12 03:34:16;;;;;;;13.40;6.38;;;;;;;-2.85;44.48;102039.00;5045174;28;20105;-70
2022/03/12 03:36:42;;;;;;;15.05;6.30;;;;;;;-2.88;44.02;102029.41;5049791;28;20033;-70
2022/03/12 03:39:08;;;;;;;15.15;7.28;;;;;;;-2.84;44.54;102030.25;5050660;28;20025;-70
2022/03/12 03:41:34;;;;;;;13.23;6.60;;;;;;;-2.93;44.40;102018.03;5052981;28;20032;-69
2022/03/12 03:44:00;;;;;;;16.58;6.82;;;;;;;-2.92;44.42;102025.06;5050551;28;20100;-69
2022/03/12 03:46:26;;;;;;;13.88;7.00;;;;;;;-2.89;44.19;102032.03;5051190;28;20478;-69
2022/03/12 03:48:53;;;;;;;18.45;6.72;;;;;;;-2.87;44.14;102036.38;5056553;28;20117;-70
2022/03/12 03:51:22;;;;;;;16.83;6.97;;;;;;;-2.83;44.15;102048.59;5048228;28;20047;-69
2022/03/12 03:53:48;;;;;;;14.80;7.95;;;;;;;-2.92;44.28;102035.56;5051612;28;20041;-69
2022/03/12 03:56:15;;;;;;;14.18;6.72;;;;;;;-2.84;44.07;102043.38;5051983;28;20120;-69
2022/03/12 03:58:41;;;;;;;16.48;6.75;;;;;;;-2.89;44.14;102027.66;5051009;28;20040;-69
2022/03/12 04:01:12;;;;;;;15.63;6.55;;;;;;;-2.85;44.09;102028.50;5047269;28;20025;-69
2022/03/12 04:03:41;;;;;;;13.98;6.32;;;;;;;-2.82;44.25;102042.50;5050785;28;20021;-70
2022/03/12 04:06:06;;;;;;;14.52;6.78;;;;;;;-2.82;44.35;102046.84;5049849;28;20045;-69
2022/03/12 04:08:33;;;;;;;12.27;6.72;;;;;;;-2.88;44.29;102041.63;5062387;28;20432;-70
2022/03/12 04:11:04;;;;;;;13.23;6.45;;;;;;;-2.93;44.54;102040.81;5053027;28;20496;-70
2022/03/12 04:13:30;;;;;;;16.38;6.68;;;;;;;-2.99;44.44;102032.97;5049492;28;20021;-70
2022/03/12 04:15:58;;;;;;;14.15;6.88;;;;;;;-2.99;44.39;102039.09;5056035;28;20131;-70
2022/03/12 04:18:24;;;;;;;15.10;7.13;;;;;;;-3.04;45.14;102040.84;5046339;28;20036;-69
2022/03/12 04:20:50;;;;;;;16.90;7.55;;;;;;;-3.07;44.57;102047.84;5048501;28;20037;-70
2022/03/12 04:23:20;;;;;;;15.48;7.60;;;;;;;-3.12;44.59;102053.16;5056382;28;20063;-69
2022/03/12 04:25:47;;;;;;;17.50;7.85;;;;;;;-3.20;44.98;102039.19;5053945;28;20032;-68
2022/03/12 04:28:12;;;;;;;17.50;6.80;;;;;;;-3.24;45.20;102047.97;5050453;28;20513;-69
2022/03/12 04:30:38;;;;;;;15.07;7.25;;;;;;;-3.28;45.27;102035.75;5044964;28;20041;-68
2022/03/12 04:33:04;;;;;;;15.40;7.13;;;;;;;-3.26;45.53;102047.09;5048510;28;20064;-69
2022/03/12 04:35:31;;;;;;;17.92;7.80;;;;;;;-3.31;45.47;102043.63;5050660;28;20021;-69
2022/03/12 04:37:56;;;;;;;17.42;7.78;;;;;;;-3.36;45.48;102048.00;5054730;28;20032;-71
2022/03/12 04:40:26;;;;;;;15.63;6.75;;;;;;;-3.41;45.19;102049.78;5045808;28;20063;-70
2022/03/12 04:42:53;;;;;;;15.70;7.07;;;;;;;-3.73;45.53;102014.94;5051001;28;20036;-69
2022/03/12 04:45:22;;;;;;;13.88;7.38;;;;;;;-3.57;45.53;102065.56;5051960;28;20480;-69
2022/03/12 04:47:50;;;;;;;18.52;7.30;;;;;;;-3.60;45.99;102061.19;5046408;28;20025;-69
2022/03/12 04:50:17;;;;;;;19.60;6.22;;;;;;;-3.70;46.21;102056.88;5050368;28;20158;-69
2022/03/12 04:52:48;;;;;;;19.80;7.55;;;;;;;-3.90;46.12;102039.44;5046841;28;20067;-70
2022/03/12 04:55:16;;;;;;;15.70;7.38;;;;;;;-3.83;46.74;102068.25;5052009;28;20041;-69
2022/03/12 04:57:43;;;;;;;19.38;7.85;;;;;;;-3.91;46.37;102064.75;5051554;28;20511;-69
2022/03/12 05:00:26;;;;;;;14.75;7.07;;;;;;;-3.94;46.59;102071.75;5052055;28;20033;-69
2022/03/12 05:03:04;;;;;;;15.68;7.00;;;;;;;-4.00;46.70;102071.75;5061867;28;20043;-69
2022/03/12 05:05:30;;;;;;;21.83;7.47;;;;;;;-4.03;47.02;102077.84;5071108;28;20036;-69
2022/03/12 05:07:58;;;;;;;17.67;7.90;;;;;;;-4.11;47.42;102077.00;5064216;28;20111;-69
2022/03/12 05:10:26;;;;;;;17.52;7.60;;;;;;;-4.16;47.37;102076.09;5046232;28;20033;-69
2022/03/12 05:12:58;;;;;;;15.88;7.35;;;;;;;-4.18;47.63;102080.50;5046358;28;20039;-69
2022/03/12 05:15:24;;;;;;;18.67;7.55;;;;;;;-4.26;47.73;102066.50;5046223;28;20067;-68
2022/03/12 05:17:51;;;;;;;17.20;7.07;;;;;;;-4.26;47.98;102082.22;5042142;28;20025;-68
2022/03/12 05:20:23;;;;;;;21.85;8.88;;;;;;;-4.31;47.76;102078.75;5045779;28;20021;-66
2022/03/12 05:22:50;;;;;;;19.10;7.93;;;;;;;-4.36;47.92;102070.00;5048510;28;20125;-66
2022/03/12 05:25:18;;;;;;;31.48;8.45;;;;;;;-4.35;48.13;102087.47;5049887;28;20690;-68
2022/03/12 05:27:51;;;;;;;24.77;8.75;;;;;;;-4.37;48.31;102076.13;5055383;28;20036;-68
2022/03/12 05:30:17;;;;;;;24.80;8.23;;;;;;;-4.34;48.17;102078.75;5046417;28;20040;-68
2022/03/12 05:32:43;;;;;;;33.10;9.52;;;;;;;-4.34;48.23;102076.13;5048768;28;20409;-69
2022/03/12 05:35:09;;;;;;;20.95;8.98;;;;;;;-4.41;48.05;102063.91;5048554;28;20029;-68
2022/03/12 05:37:36;;;;;;;22.52;8.43;;;;;;;-4.33;48.33;102072.63;5048359;28;20477;-69
2022/03/12 05:40:04;;;;;;;23.25;8.60;;;;;;;-4.28;48.87;102075.25;5047380;28;20047;-68
2022/03/12 05:42:34;;;;;;;18.77;8.38;;;;;;;-4.25;48.46;102081.38;5043100;28;20035;-68
2022/03/12 05:45:01;;;;;;;21.15;9.82;;;;;;;-4.34;48.43;102065.66;5045458;28;20048;-68
2022/03/12 05:47:27;;;;;;;25.88;9.32;;;;;;;-4.23;48.72;102081.38;5042950;28;20086;-68
2022/03/12 05:49:53;;;;;;;25.25;9.50;;;;;;;-4.20;48.56;102084.84;5048131;28;20039;-68
2022/03/12 05:52:19;;;;;;;21.65;9.25;;;;;;;-4.17;48.55;102090.09;5048519;28;20033;-66
2022/03/12 05:54:48;;;;;;;21.75;9.30;;;;;;;-4.14;48.92;102094.44;5047431;28;20029;-67
2022/03/12 05:57:13;;;;;;;19.23;7.68;;;;;;;-4.11;48.63;102091.81;5047147;28;20041;-67
2022/03/12 05:59:39;;;;;;;17.85;9.20;;;;;;;-4.24;48.77;102062.16;5048568;28;20151;-66
2022/03/12 06:02:05;;;;;;;25.50;7.90;;;;;;;-4.05;48.75;102092.72;5048710;28;20036;-67
2022/03/12 06:04:30;;;;;;;20.25;8.77;;;;;;;-4.04;48.39;102083.97;5047075;28;20025;-66
2022/03/12 06:06:56;;;;;;;17.90;8.02;;;;;;;-3.94;48.66;102093.56;5048284;28;20041;-67
2022/03/12 06:09:22;;;;;;;21.88;10.02;;;;;;;-3.88;48.53;102096.19;5047999;28;20804;-66
2022/03/12 06:11:54;;;;;;;22.75;8.68;;;;;;;-3.81;48.51;102095.31;5057469;28;20550;-67
2022/03/12 06:14:21;;;;;;;22.38;8.63;;;;;;;-3.73;48.88;102096.19;5054404;28;20041;-66
2022/03/12 06:16:50;;;;;;;16.77;8.25;;;;;;;-3.65;48.32;102096.19;5057450;28;20036;-67
2022/03/12 06:19:18;;;;;;;16.60;8.70;;;;;;;-3.54;47.68;102103.13;5048709;28;20025;-68
2022/03/12 06:21:45;;;;;;;18.67;8.48;;;;;;;-3.43;47.66;102106.59;5047865;28;20053;-67
2022/03/12 06:24:10;;;;;;;15.18;8.38;;;;;;;-3.35;47.90;102098.72;5047177;28;20029;-69
2022/03/12 06:26:39;;;;;;;17.88;7.80;;;;;;;-3.21;47.51;102108.28;5048906;28;20037;-68
2022/03/12 06:29:12;;;;;;;17.27;7.43;;;;;;;-3.10;46.69;102102.97;5046841;28;20508;-69
2022/03/12 06:31:38;;;;;;;18.92;8.15;;;;;;;-3.05;46.41;102101.22;5047508;28;20086;-69
2022/03/12 06:34:04;;;;;;;19.33;8.23;;;;;;;-2.95;46.54;102109.06;5048649;28;20033;-69
2022/03/12 06:36:30;;;;;;;27.65;9.50;;;;;;;-2.80;46.63;102121.25;5046479;28;20033;-69
2022/03/12 06:38:55;;;;;;;17.55;8.25;;;;;;;-2.72;46.31;102114.19;5047753;28;20386;-69
2022/03/12 06:41:21;;;;;;;20.65;8.82;;;;;;;-2.63;45.85;102111.50;5046546;28;20064;-69
2022/03/12 06:43:47;;;;;;;16.13;8.70;;;;;;;-2.45;45.67;102121.91;5047518;28;20027;-69
2022/03/12 06:46:14;;;;;;;26.50;8.98;;;;;;;-2.32;45.41;102128.84;5047034;28;20048;-69
2022/03/12 06:48:40;;;;;;;16.55;8.27;;;;;;;-2.31;45.01;102101.69;5047463;28;20028;-69
2022/03/12 06:51:06;;;;;;;25.83;9.02;;;;;;;-2.10;44.78;102122.53;5049355;28;20377;-69
2022/03/12 06:53:32;;;;;;;18.50;8.88;;;;;;;-1.90;44.31;102125.91;5048551;28;20037;-69
2022/03/12 06:55:58;;;;;;;20.33;9.35;;;;;;;-1.78;44.15;102136.28;5042445;28;20041;-68
2022/03/12 06:58:24;;;;;;;17.92;8.63;;;;;;;-1.67;44.17;102125.69;5043012;28;20103;-69
2022/03/12 07:00:50;;;;;;;18.63;8.38;;;;;;;-1.54;43.87;102125.56;5051759;28;20032;-68
2022/03/12 07:03:15;;;;;;;21.88;9.40;;;;;;;-1.36;43.72;102129.75;5043685;28;20032;-69
2022/03/12 07:05:41;;;;;;;17.85;8.55;;;;;;;-1.18;43.41;102130.44;5045500;28;20118;-69
2022/03/12 07:08:06;;;;;;;20.23;8.75;;;;;;;-1.01;43.01;102125.84;5049512;28;20029;-69
2022/03/12 07:10:32;;;;;;;16.63;9.18;;;;;;;-0.72;42.16;102139.50;5047439;28;20358;-69
2022/03/12 07:12:58;;;;;;;19.00;9.00;;;;;;;-0.49;41.63;102137.44;5045752;28;20032;-69
2022/03/12 07:15:23;;;;;;;18.98;8.95;;;;;;;-0.27;41.24;102138.88;5046228;28;20029;-69
2022/03/12 07:17:49;;;;;;;17.15;7.93;;;;;;;-0.03;40.71;102140.28;5045106;28;20045;-70
2022/03/12 07:20:16;;;;;;;19.55;8.30;;;;;;;0.20;40.46;102146.06;5047810;28;20033;-70
2022/03/12 07:22:42;;;;;;;17.95;8.18;;;;;;;0.46;40.19;102148.25;5045820;28;20061;-70
2022/03/12 07:25:09;;;;;;;19.90;8.52;;;;;;;0.61;39.78;102135.63;5044649;28;20029;-70
2022/03/12 07:27:34;;;;;;;20.05;8.90;;;;;;;0.89;39.63;102141.28;5042135;28;20124;-70
2022/03/12 07:30:00;;;;;;;17.80;9.20;;;;;;;1.12;39.02;102131.13;5044548;28;20112;-69
2022/03/12 07:32:28;;;;;;;23.33;9.30;;;;;;;1.46;38.58;102146.25;5045620;28;20033;-69
2022/03/12 07:34:55;;;;;;;18.25;9.07;;;;;;;1.72;38.22;102138.63;5047569;28;20028;-70
2022/03/12 07:37:21;;;;;;;19.70;8.85;;;;;;;2.00;38.19;102141.50;5052212;28;20147;-70
2022/03/12 07:39:47;;;;;;;20.27;9.43;;;;;;;2.25;37.72;102132.03;5050732;28;20161;-71
2022/03/12 07:42:13;;;;;;;16.33;8.90;;;;;;;2.60;36.68;102142.59;5048996;28;20392;-70
2022/03/12 07:44:39;;;;;;;18.58;8.32;;;;;;;2.88;35.90;102130.38;5046670;28;20036;-70
2022/03/12 07:47:05;;;;;;;13.75;7.95;;;;;;;3.14;35.52;102129.63;5056189;28;20155;-69
2022/03/12 07:49:31;;;;;;;20.75;8.48;;;;;;;3.36;34.94;102128.97;5047153;28;20033;-69
2022/03/12 07:51:56;;;;;;;15.77;8.43;;;;;;;3.72;34.47;102134.94;5046930;28;20758;-69
2022/03/12 07:54:23;;;;;;;14.48;8.15;;;;;;;4.16;33.69;102118.47;5047519;28;20029;-70
2022/03/12 07:56:49;;;;;;;13.68;7.65;;;;;;;4.53;32.52;102109.22;5044870;28;20120;-69
2022/03/12 07:59:14;;;;;;;14.35;8.43;;;;;;;5.08;31.73;102118.75;5042759;28;20175;-70
2022/03/12 08:01:39;;;;;;;13.25;7.93;;;;;;;5.53;30.88;102129.44;5041820;28;20033;-68
2022/03/12 08:04:06;;;;;;;15.90;8.73;;;;;;;6.25;29.99;102130.09;5045972;28;20040;-68
2022/03/12 08:06:33;;;;;;;14.95;7.35;;;;;;;6.79;29.26;102134.88;5044505;28;20795;-69
2022/03/12 08:09:00;;;;;;;15.20;8.13;;;;;;;7.18;28.32;102126.91;5048684;28;20039;-69
2022/03/12 08:11:29;;;;;;;15.98;8.40;;;;;;;7.90;27.40;102140.38;5043327;28;20033;-68
2022/03/12 08:14:04;;;;;;;13.55;7.97;;;;;;;8.41;26.44;102135.19;5044758;28;20389;-68
2022/03/12 08:16:32;;;;;;;10.45;6.72;;;;;;;9.48;25.17;102131.34;5043383;28;20044;-68
2022/03/12 08:18:58;;;;;;;14.48;7.57;;;;;;;10.02;24.20;102128.25;5047785;28;20032;-69
2022/03/12 08:21:24;;;;;;;11.38;7.55;;;;;;;10.41;23.83;102120.63;5048838;28;20397;-68
2022/03/12 08:23:50;;;;;;;12.52;7.28;;;;;;;10.89;23.18;102118.56;5047434;28;20040;-68
2022/03/12 08:26:17;;;;;;;12.40;7.18;;;;;;;11.15;22.48;102115.16;5046055;28;20032;-68
2022/03/12 08:28:43;;;;;;;12.60;7.75;;;;;;;11.31;22.23;102112.38;5049277;28;20087;-68
2022/03/12 08:31:09;;;;;;;9.23;6.60;;;;;;;11.57;22.28;102111.59;5045957;28;20052;-70
2022/03/12 08:33:36;;;;;;;10.98;7.15;;;;;;;11.87;21.76;102125.81;5050205;28;20093;-69
2022/03/12 08:36:04;;;;;;;9.75;6.88;;;;;;;12.01;21.15;102101.59;5050303;28;23491;-68
2022/03/12 08:38:31;;;;;;;10.13;6.88;;;;;;;12.45;20.87;102114.78;5050408;28;20369;-68
2022/03/12 08:40:56;;;;;;;9.40;5.78;;;;;;;12.12;20.93;102104.41;5053077;28;20063;-68
2022/03/12 08:43:21;;;;;;;10.60;5.85;;;;;;;11.42;21.39;102116.13;5048708;28;20064;-69
2022/03/12 08:45:48;;;;;;;10.73;6.32;;;;;;;10.79;22.10;102113.84;5049686;28;20034;-69
2022/03/12 08:48:15;;;;;;;10.15;6.47;;;;;;;10.31;22.63;102122.09;5041975;28;20041;-68
2022/03/12 08:50:41;;;;;;;9.18;5.78;;;;;;;9.87;22.87;102126.44;5047904;28;20453;-68
2022/03/12 08:53:07;;;;;;;10.02;6.22;;;;;;;9.83;23.02;102116.84;5052041;28;20037;-68
2022/03/12 08:55:32;;;;;;;10.80;5.70;;;;;;;11.03;22.38;102115.91;5050982;28;20093;-68
2022/03/12 08:57:58;;;;;;;9.60;4.97;;;;;;;12.25;21.58;102113.41;5051952;28;20048;-68
2022/03/12 09:00:24;;;;;;;8.93;5.75;;;;;;;13.47;19.75;102112.97;5052067;28;21117;-69
2022/03/12 09:02:51;;;;;;;7.30;5.30;;;;;;;14.55;19.19;102115.69;5043493;28;20033;-69
2022/03/12 09:05:17;;;;;;;9.27;5.28;;;;;;;15.60;18.27;102099.19;5048875;28;20393;-68
2022/03/12 09:07:44;;;;;;;7.90;4.95;;;;;;;16.57;17.70;102105.50;5048454;28;20812;-69
2022/03/12 09:10:12;;;;;;;7.47;4.70;;;;;;;17.67;16.83;102101.28;5049886;28;20024;-69
2022/03/12 09:12:40;;;;;;;8.38;4.95;;;;;;;18.37;16.50;102109.31;5044714;28;20587;-69
2022/03/12 09:15:07;;;;;;;8.35;4.50;;;;;;;19.13;15.84;102104.72;5050233;28;20054;-69
2022/03/12 09:17:33;;;;;;;7.53;4.55;;;;;;;19.74;15.19;102099.69;5050673;28;20033;-70
2022/03/12 09:19:58;;;;;;;5.82;4.60;;;;;;;20.26;14.92;102085.34;5054538;28;20097;-70
2022/03/12 09:22:24;;;;;;;6.80;4.10;;;;;;;20.74;14.35;102083.09;5055829;28;20505;-70
2022/03/12 09:24:50;;;;;;;8.48;4.75;;;;;;;20.56;14.27;102078.63;5056640;28;20028;-70
2022/03/12 09:27:16;;;;;;;8.05;4.47;;;;;;;20.53;14.42;102074.38;5056378;28;20802;-70
2022/03/12 09:29:41;;;;;;;8.23;4.20;;;;;;;20.39;14.21;102074.06;5060009;28;20025;-70
2022/03/12 09:32:08;;;;;;;7.80;4.25;;;;;;;19.99;14.58;102069.84;5050564;28;20039;-69
2022/03/12 09:34:34;;;;;;;6.28;4.28;;;;;;;20.34;14.44;102073.69;5052203;28;20060;-69
2022/03/12 09:37:00;;;;;;;6.25;4.10;;;;;;;20.53;14.10;102068.06;5052762;28;20082;-69
2022/03/12 09:39:26;;;;;;;6.50;4.13;;;;;;;20.55;14.05;102058.72;5062212;28;20017;-70
2022/03/12 09:41:52;;;;;;;5.22;4.18;;;;;;;20.48;14.26;102057.63;5056214;28;20034;-69
2022/03/12 09:44:17;;;;;;;5.03;4.22;;;;;;;20.90;13.65;102060.53;5057433;28;20825;-69
2022/03/12 09:46:43;;;;;;;5.40;4.10;;;;;;;21.06;13.82;102057.97;5054756;28;20158;-70
2022/03/12 09:49:11;;;;;;;5.88;4.03;;;;;;;20.94;13.56;102048.31;5050238;28;20028;-70
2022/03/12 09:51:36;;;;;;;5.28;4.63;;;;;;;20.97;13.79;102040.69;5047803;28;20028;-70
2022/03/12 09:54:03;;;;;;;6.57;4.30;;;;;;;20.46;13.90;102048.75;5049461;28;20032;-70
2022/03/12 09:56:29;;;;;;;4.82;3.83;;;;;;;19.94;14.17;102044.09;5046695;28;20438;-69
2022/03/12 09:58:55;;;;;;;4.90;4.05;;;;;;;19.95;13.98;102045.78;5047663;28;20115;-70
2022/03/12 10:01:21;;;;;;;6.88;3.80;;;;;;;20.15;13.82;102041.94;5050475;28;20103;-70
2022/03/12 10:03:46;;;;;;;7.07;4.32;;;;;;;20.31;13.63;102041.28;5046676;28;20488;-70
2022/03/12 10:06:15;;;;;;;6.18;4.35;;;;;;;20.18;13.95;102042.50;5050134;28;20436;-70
2022/03/12 10:08:40;;;;;;;6.35;4.57;;;;;;;20.08;14.11;102043.56;5047201;28;20403;-70
2022/03/12 10:11:06;;;;;;;5.28;3.83;;;;;;;20.24;14.13;102040.19;5047384;28;20036;-67
2022/03/12 10:13:32;;;;;;;4.60;3.67;;;;;;;20.29;13.83;102035.13;5045659;28;20770;-67
2022/03/12 10:15:59;;;;;;;6.50;4.28;;;;;;;20.91;13.68;102034.94;5047477;28;20024;-68
2022/03/12 10:18:24;;;;;;;7.55;4.40;;;;;;;21.44;12.99;102030.22;5047444;28;20021;-68
2022/03/12 10:20:50;;;;;;;5.40;4.40;;;;;;;21.68;12.69;102025.72;5042567;28;20032;-67
2022/03/12 10:23:15;;;;;;;5.07;4.03;;;;;;;21.71;13.12;102017.19;5036039;28;20053;-67
2022/03/12 10:25:41;;;;;;;4.70;4.03;;;;;;;21.17;13.13;102022.19;5046902;28;20044;-67
2022/03/12 10:28:07;;;;;;;7.40;4.65;;;;;;;20.80;13.30;102018.88;5046546;28;20036;-67
2022/03/12 10:30:34;;;;;;;5.07;4.35;;;;;;;20.26;13.58;102019.94;5048195;28;20430;-67
2022/03/12 10:33:00;;;;;;;4.72;4.22;;;;;;;18.97;14.47;102027.44;5048972;28;20124;-67
2022/03/12 10:35:33;;;;;;;6.25;4.90;;;;;;;17.84;15.10;102025.44;5048738;28;20033;-67
2022/03/12 10:38:00;;;;;;;6.50;4.80;;;;;;;17.25;15.02;102026.38;5046353;28;20482;-67
2022/03/12 10:40:26;;;;;;;5.30;4.60;;;;;;;16.19;15.61;102014.94;5048879;28;20027;-67
2022/03/12 10:42:57;;;;;;;5.47;4.22;;;;;;;15.36;16.97;102025.47;5048783;28;20021;-67
2022/03/12 10:45:28;;;;;;;4.78;4.20;;;;;;;14.15;17.87;102013.50;5048699;28;20104;-67
2022/03/12 10:48:02;;;;;;;10.15;6.10;;;;;;;13.80;17.47;102009.88;5048530;28;20098;-67
2022/03/12 10:50:34;;;;;;;6.90;4.90;;;;;;;12.64;18.87;102002.19;5048647;28;20389;-67
2022/03/12 10:53:05;;;;;;;6.07;4.05;;;;;;;11.95;18.91;102015.06;5048217;28;20098;-67
2022/03/12 10:55:36;;;;;;;7.88;4.70;;;;;;;11.31;19.76;102007.59;5048508;28;20128;-67
2022/03/12 10:58:12;;;;;;;7.43;5.00;;;;;;;10.73;20.84;102015.78;5047141;28;20107;-67
2022/03/12 11:00:47;;;;;;;7.32;5.22;;;;;;;10.46;20.27;101998.69;5048435;28;20029;-66
2022/03/12 11:03:20;;;;;;;7.68;4.07;;;;;;;10.09;21.33;102007.19;5048929;28;20158;-66
2022/03/12 11:05:47;;;;;;;6.80;4.47;;;;;;;9.86;21.28;102007.66;5048778;28;20385;-67
2022/03/12 11:08:23;;;;;;;8.88;4.82;;;;;;;9.65;21.28;102008.91;5047224;28;20021;-67
2022/03/12 11:10:53;;;;;;;6.82;4.75;;;;;;;9.44;21.80;102012.78;5046773;28;20032;-66
2022/03/12 11:13:40;;;;;;;6.40;4.15;;;;;;;9.25;21.60;102004.91;5046770;28;20500;-66
2022/03/12 11:16:12;;;;;;;8.82;4.50;;;;;;;9.11;22.09;102002.16;5048326;28;20427;-68
2022/03/12 11:18:46;;;;;;;7.97;4.45;;;;;;;8.96;22.17;101996.75;5048233;28;20033;-67